Terminal Aerodrome Forecast
Issued by NWS

Home | Current Version | Previous Version | Graphics & Text | Print | Product List | Glossary On
Versions: 1 2 3 4 5 6 7 8 9 10 11 12 13 14 15 16 17 18 19 20 21 22 23 24 25 26 27 28 29 30 31 32 33 34 35 36 37 38 39 40
000
FTUS43 KLOT 252300
TAFORD
TAF
KORD 252320Z 2600/2706 25007KT P6SM SCT019
     FM260200 23005KT P6SM FEW019 SCT250
     FM261300 14005KT P6SM BKN200
     FM262100 07005KT P6SM OVC150
     FM270200 33005KT P6SM BKN080=

USA.gov is the U.S. government's official web portal to all federal, state and local government web resources and services.